Weather observations for the past three days for
Tonopah, Tonopah Airport
Metric (Imperial)
Date Time (pdt) Wind (kph) Vis. (km) Weather Sky Cond. Temperature (ºC) Relative Humidity Wind Chill (°C) Heat Index (°C) Pressure Precipitation (cm)
Air Dwpt 6 hour altimeter (cm) sea level (mb) 1 hr 3 hr 6 hr
Max. Min.
04 23:56 SE 13 16.09 Fair CLR 17.8 1.7 34% 76.2 1009.0
04 22:56 S 9 16.09 Fair CLR 17.8 0.6 26.1 17.2 32% 76.15 1008.7
04 21:56 S 20 16.09 Fair CLR 18.9 0.6 29% 76.15 1008.5
04 20:56 S 20 16.09 Fair CLR 20 0.6 27% 76.12 1008.3
04 19:56 S 19 16.09 Fair CLR 21.7 0 24% 76.07 1007.7
04 18:56 S 28 G 48 16.09 Fair CLR 23.3 -0.6 20% 76.05 1008.4
04 17:56 S 33 G 56 16.09 Fair and Breezy CLR 25 0 19% 25 76.05 1008.2
04 16:56 S 43 G 56 16.09 Fair and Windy CLR 26.1 -1.1 27.2 21.7 17% 25 76.02 1007.2
04 15:56 S 35 G 59 16.09 Fair and Breezy CLR 26.7 -2.2 15% 26 76.02 1006.9
04 14:56 S 39 G 59 16.09 Fair and Breezy CLR 26.7 -1.1 16% 26 76.02 1006.9
04 13:56 S 41 G 61 16.09 Fair and Breezy CLR 26.1 -1.1 17% 25 76.05 1006.9
04 12:56 S 35 G 56 16.09 Fair and Breezy CLR 25 -0.6 18% 25 76.07 1007.1
04 11:56 S 24 G 46 16.09 Fair CLR 23.3 0.6 22% 76.12 1008.1
04 10:56 S 31 G 43 0.00 NULL NULL 21.1 1.1 21.1 7.2 27% 76.17 1008.7
04 09:56 SE 20 16.09 Fair CLR 19.4 1.1 30% 76.17 1009.1
04 08:56 SE 15 16.09 Fair CLR 17.2 1.7 35% 76.17 1009.2
04 07:56 SE 15 16.09 Fair CLR 15.6 1.1 38% 76.17 1009.3
04 06:56 N 6 16.09 Fair CLR 9.4 -3.3 41% 76.12 1009.4
04 05:56 Calm 16.09 Fair CLR 7.8 -5.6 38% 76.07 1008.6
04 04:56 E 7 16.09 Fair CLR 10.6 -3.3 18.9 8.9 38% 76.05 1007.5
04 03:56 E 11 16.09 Fair CLR 11.1 -3.9 35% 76.02 1007.0
04 02:56 E 6 16.09 Fair CLR 12.2 -3.3 34% 76 1006.7
04 01:56 Calm 16.09 Fair CLR 13.3 -3.9 30% 75.97 1006.5
04 00:56 SE 19 16.09 Fair CLR 16.1 -3.3 26% 75.97 1005.7
03 23:56 S 17 16.09 Fair CLR 16.7 -2.8 26% 75.97 1006.1
03 22:56 S 26 16.09 Fair CLR 18.9 -2.2 26.1 18.9 24% 75.95 1005.6
03 21:56 S 24 16.09 Fair CLR 18.9 -2.2 24% 75.97 1006.2
03 20:56 S 22 16.09 Fair CLR 20 -1.7 23% 75.97 1006.5
03 19:56 S 22 16.09 Fair CLR 21.1 -1.7 22% 75.95 1006.7
03 18:56 S 33 G 52 16.09 Fair and Breezy CLR 23.3 -2.8 17% 75.95 1007.2
03 17:56 S 35 G 52 16.09 Fair and Breezy CLR 25 -3.3 15% 25 75.92 1006.7
03 16:56 S 28 G 48 16.09 Fair CLR 25.6 -2.8 26.7 20.6 15% 25 75.95 1006.6
03 15:56 S 19 G 41 16.09 Fair CLR 26.1 -3.3 14% 25 76 1007.0
03 14:56 S 31 G 46 16.09 Fair CLR 25.6 -3.9 14% 25 76.05 1007.6
03 13:56 Vrbl 7 G 33 16.09 Fair CLR 24.4 -4.4 14% 24 76.1 1008.2
03 12:56 S 20 G 31 16.09 Fair CLR 24.4 -5 14% 24 76.15 1008.5
03 11:56 Vrbl 9 16.09 Fair CLR 22.2 -5 16% 76.23 1009.8
03 10:56 Calm 16.09 Fair CLR 20.6 -5.6 20.6 7.2 17% 76.28 1010.5
03 09:56 Vrbl 9 16.09 Fair CLR 18.3 -6.1 19% 76.3 1011.4
03 08:56 Calm 16.09 Fair CLR 16.1 -6.7 20% 76.33 1011.8
03 07:56 N 9 16.09 Fair CLR 12.8 -6.7 25% 76.33 1012.1
03 06:56 N 15 6.44 Fair with Haze CLR 7.8 -7.8 33% 6 76.3 1012.1
03 04:56 N 11 16.09 Fair CLR 8.3 -8.3 17.2 7.8 30% 7 76.28 1011.2
03 03:56 N 13 16.09 Fair CLR 9.4 -8.3 28% 8 76.28 1011.0
03 02:56 NW 11 16.09 Fair CLR 9.4 -7.8 29% 8 76.28 1011.3
03 01:56 N 11 16.09 Fair CLR 11.7 -7.2 26% 76.3 1011.2
03 00:56 N 13 16.09 Fair CLR 13.9 -6.1 25% 76.3 1011.1
02 23:56 NW 11 16.09 Fair CLR 16.1 -5.6 22% 76.3 1011.0
02 22:56 NW 15 16.09 Fair CLR 16.7 -6.7 25.6 16.1 20% 76.28 1011.0
02 21:56 SW 17 16.09 Fair CLR 16.7 -7.8 18% 76.28 1011.3
02 20:56 SW 13 16.09 Fair CLR 17.8 -6.7 18% 76.23 1010.9
02 19:56 S 17 16.09 Fair CLR 20 -7.8 15% 76.17 1010.3
02 18:56 S 28 16.09 Fair CLR 23.3 -7.8 12% 76.15 1010.2
02 17:56 S 17 G 41 16.09 Fair CLR 24.4 -8.3 11% 24 76.17 1010.4
02 16:56 S 20 G 35 16.09 Fair CLR 25.6 -8.3 26.1 18.3 10% 25 76.17 1010.3
02 15:56 S 26 G 39 16.09 Fair CLR 26.1 -7.8 10% 25 76.23 1010.0
02 14:56 S 24 G 39 16.09 Fair CLR 25 -7.2 11% 25 76.28 1010.6
02 13:56 S 28 G 41 16.09 Fair CLR 23.9 -8.9 10% 24 76.3 1011.7
02 12:56 S 19 G 28 16.09 Fair CLR 22.2 -8.3 12% 76.35 1012.0
02 11:56 Vrbl 6 16.09 Fair CLR 20 -6.1 17% 76.4 1013.1
02 10:56 S 11 16.09 Fair CLR 18.3 -5.6 18.9 5 19% 76.45 1013.6
02 09:56 S 11 16.09 Fair CLR 17.8 -5 21% 76.45 1012.8
02 08:56 Calm 16.09 Fair CLR 15.6 -5.6 23% 76.45 1013.6
02 07:56 NW 6 16.09 Fair CLR 12.2 -8.3 23% 76.4 1013.2
02 06:56 N 9 16.09 Fair CLR 7.8 -11.7 24% 6 76.38 1013.1
02 05:56 N 17 16.09 Fair CLR 6.7 -11.1 27% 4 76.33 1012.4
02 04:56 NW 11 16.09 Fair CLR 6.1 -12.8 15.6 6.1 25% 4 76.28 1011.6
02 03:56 Calm 16.09 Fair CLR 10 -11.7 21% 76.25 1010.4
02 02:56 S 9 16.09 Fair CLR 11.1 -12.2 18% 76.23 1009.8
02 01:56 N 6 16.09 Fair CLR 10 -13.3 18% 76.23 1010.1
02 00:56 E 7 16.09 Fair CLR 12.8 -12.8 16% 76.23 1009.5
Date Time (pdt) Wind (kph) Vis. (km) Weather Sky Cond. Air Dwpt Max. Min. Relative Humidity Wind Chill (°C) Heat Index (°C) altimeter (cm) sea level (mb) 1 hr 3 hr 6 hr
6 hour
Temperature (ºC) Pressure Precipitation (cm)